createdAt,value
2019-03-23T00:02:14.475Z,15.87
2019-03-23T00:04:42.893Z,15.57
2019-03-23T00:07:11.278Z,15.20
2019-03-23T00:09:39.630Z,14.93
2019-03-23T00:12:08.085Z,15.77
2019-03-23T00:14:36.431Z,16.03
2019-03-23T00:17:04.951Z,16.30
2019-03-23T00:19:33.311Z,17.80
2019-03-23T00:22:01.698Z,18.90
2019-03-23T00:24:30.048Z,17.37
2019-03-23T00:26:58.429Z,16.07
2019-03-23T00:29:26.783Z,19.60
2019-03-23T00:31:55.158Z,15.67
2019-03-23T00:34:23.506Z,15.70
2019-03-23T00:36:51.916Z,18.87
2019-03-23T00:39:20.271Z,16.97
2019-03-23T00:41:49.145Z,19.60
2019-03-23T00:44:17.507Z,17.93
2019-03-23T00:46:45.895Z,20.33
2019-03-23T00:49:14.242Z,22.37
2019-03-23T00:51:42.623Z,16.73
2019-03-23T00:54:10.976Z,18.70
2019-03-23T00:56:39.366Z,20.80
2019-03-23T00:59:07.723Z,20.13
2019-03-23T01:01:36.108Z,18.57
2019-03-23T01:04:04.582Z,17.40
2019-03-23T01:06:32.910Z,17.97
2019-03-23T01:09:01.331Z,19.43
2019-03-23T01:11:29.712Z,18.00
2019-03-23T01:13:58.063Z,19.47
2019-03-23T01:16:26.726Z,20.13
2019-03-23T01:18:55.070Z,22.60
2019-03-23T01:21:23.458Z,17.10
2019-03-23T01:23:51.806Z,26.70
2019-03-23T01:26:20.189Z,18.13
2019-03-23T01:28:48.535Z,19.37
2019-03-23T01:31:16.923Z,20.73
2019-03-23T01:33:45.271Z,16.83
2019-03-23T01:36:13.653Z,18.97
2019-03-23T01:38:42.005Z,19.80
2019-03-23T01:41:10.384Z,20.07
2019-03-23T01:43:38.737Z,17.23
2019-03-23T01:46:07.123Z,18.97
2019-03-23T01:48:35.475Z,15.90
2019-03-23T01:51:03.856Z,19.40
2019-03-23T01:53:32.205Z,24.63
2019-03-23T01:56:00.581Z,23.50
2019-03-23T01:58:28.926Z,23.60
2019-03-23T02:00:57.314Z,24.57
2019-03-23T02:03:25.734Z,20.53
2019-03-23T02:05:54.113Z,22.00
2019-03-23T02:08:22.664Z,21.53
2019-03-23T02:10:51.045Z,24.03
2019-03-23T02:13:19.657Z,21.80
2019-03-23T02:15:48.106Z,24.93
2019-03-23T02:18:16.452Z,19.47
2019-03-23T02:20:44.910Z,23.10
2019-03-23T02:23:13.267Z,21.93
2019-03-23T02:25:41.664Z,21.93
2019-03-23T02:28:10.455Z,20.93
2019-03-23T02:30:38.890Z,17.43
2019-03-23T02:33:07.589Z,20.27
2019-03-23T02:35:36.015Z,19.23
2019-03-23T02:38:04.463Z,16.17
2019-03-23T02:40:32.819Z,16.67
2019-03-23T02:43:01.210Z,20.33
2019-03-23T02:45:30.480Z,17.03
2019-03-23T02:47:59.784Z,19.90
2019-03-23T02:50:28.203Z,18.60
2019-03-23T02:52:56.586Z,16.57
2019-03-23T02:55:24.939Z,16.27
2019-03-23T02:57:53.318Z,17.00
2019-03-23T03:00:21.680Z,15.17
2019-03-23T03:02:50.059Z,18.13
2019-03-23T03:05:18.503Z,17.53
2019-03-23T03:07:46.926Z,19.97
2019-03-23T03:10:36.463Z,17.33
2019-03-23T03:13:04.841Z,16.57
2019-03-23T03:15:33.191Z,18.87
2019-03-23T03:18:01.570Z,13.70
2019-03-23T03:20:29.915Z,17.07
2019-03-23T03:22:58.363Z,22.83
2019-03-23T03:25:26.714Z,17.63
2019-03-23T03:27:55.102Z,14.97
2019-03-23T03:30:23.499Z,18.30
2019-03-23T03:32:51.924Z,18.93
2019-03-23T03:35:20.270Z,14.40
2019-03-23T03:37:56.441Z,14.67
2019-03-23T03:40:18.799Z,17.53
2019-03-23T03:42:47.180Z,16.67
2019-03-23T03:45:24.077Z,15.43
2019-03-23T03:47:52.515Z,14.10
2019-03-23T03:50:20.866Z,16.40
2019-03-23T03:52:49.332Z,15.23
2019-03-23T03:55:17.665Z,16.33
2019-03-23T03:57:46.131Z,17.27
2019-03-23T04:00:14.891Z,16.93
2019-03-23T04:02:43.276Z,17.93
2019-03-23T04:05:11.709Z,18.67
2019-03-23T04:07:40.069Z,16.33
2019-03-23T04:10:09.879Z,14.37
2019-03-23T04:12:38.242Z,20.53
2019-03-23T04:15:08.836Z,18.00
2019-03-23T04:17:37.485Z,17.03
2019-03-23T04:20:08.131Z,19.27
2019-03-23T04:22:37.273Z,21.93
2019-03-23T04:25:07.543Z,18.77
2019-03-23T04:27:35.994Z,19.57
2019-03-23T04:30:06.297Z,15.80
2019-03-23T04:32:34.827Z,17.37
2019-03-23T04:35:03.502Z,17.87
2019-03-23T04:37:31.882Z,18.80
2019-03-23T04:40:00.280Z,23.40
2019-03-23T04:42:28.611Z,22.23
2019-03-23T04:44:56.966Z,18.37
2019-03-23T04:47:25.457Z,15.37
2019-03-23T04:49:53.767Z,15.67
2019-03-23T04:52:22.150Z,18.73
2019-03-23T04:54:50.507Z,15.73
2019-03-23T04:57:18.892Z,18.30
2019-03-23T04:59:47.240Z,17.80
2019-03-23T05:02:15.621Z,18.13
2019-03-23T05:04:43.988Z,16.07
2019-03-23T05:07:12.353Z,15.23
2019-03-23T05:09:40.708Z,14.93
2019-03-23T05:12:09.090Z,15.73
2019-03-23T05:14:37.437Z,15.87
2019-03-23T05:17:05.892Z,15.23
2019-03-23T05:19:34.235Z,15.33
2019-03-23T05:22:02.616Z,14.50
2019-03-23T05:24:30.965Z,16.50
2019-03-23T05:26:59.417Z,18.53
2019-03-23T05:29:27.835Z,17.73
2019-03-23T05:31:56.223Z,17.97
2019-03-23T05:34:24.571Z,17.70
2019-03-23T05:36:52.959Z,21.77
2019-03-23T05:39:21.301Z,19.93
2019-03-23T05:41:49.685Z,21.03
2019-03-23T05:44:18.033Z,18.67
2019-03-23T05:46:46.389Z,16.00
2019-03-23T05:49:14.769Z,17.73
2019-03-23T05:51:43.121Z,20.87
2019-03-23T05:54:11.759Z,22.37
2019-03-23T05:56:40.319Z,22.87
2019-03-23T05:59:08.704Z,21.70
2019-03-23T06:01:37.136Z,23.50
2019-03-23T06:04:07.761Z,26.97
2019-03-23T06:06:36.446Z,28.27
2019-03-23T06:09:06.735Z,22.63
2019-03-23T06:11:35.154Z,22.57
2019-03-23T06:14:03.612Z,16.70
2019-03-23T06:16:31.960Z,18.63
2019-03-23T06:19:00.339Z,22.67
2019-03-23T06:21:28.689Z,21.67
2019-03-23T06:23:57.065Z,29.33
2019-03-23T06:26:25.653Z,24.00
2019-03-23T06:28:54.536Z,23.37
2019-03-23T06:31:23.214Z,27.77
2019-03-23T06:33:51.598Z,28.07
2019-03-23T06:36:19.948Z,21.50
2019-03-23T06:38:48.327Z,20.83
2019-03-23T06:41:16.678Z,25.77
2019-03-23T06:43:45.065Z,23.77
2019-03-23T06:46:13.406Z,24.77
2019-03-23T06:48:41.791Z,22.57
2019-03-23T06:51:10.145Z,22.13
2019-03-23T06:53:38.525Z,22.03
2019-03-23T06:56:06.879Z,25.80
2019-03-23T06:58:35.261Z,23.93
2019-03-23T07:01:03.694Z,20.97
2019-03-23T07:03:33.981Z,23.53
2019-03-23T07:06:05.583Z,21.23
2019-03-23T07:08:35.697Z,18.43
2019-03-23T07:11:04.334Z,20.47
2019-03-23T07:13:32.795Z,21.63
2019-03-23T07:16:01.148Z,19.53
2019-03-23T07:18:29.529Z,23.17
2019-03-23T07:20:57.948Z,18.67
2019-03-23T07:23:26.336Z,22.10
2019-03-23T07:25:54.683Z,21.07
2019-03-23T07:28:23.068Z,21.37
2019-03-23T07:30:51.510Z,20.37
2019-03-23T07:33:19.876Z,19.93
2019-03-23T07:35:48.228Z,23.07
2019-03-23T07:38:16.604Z,21.27
2019-03-23T07:40:44.955Z,20.90
2019-03-23T07:43:13.426Z,22.43
2019-03-23T07:45:41.769Z,22.83
2019-03-23T07:48:10.154Z,23.87
2019-03-23T07:50:39.217Z,21.30
2019-03-23T07:53:08.179Z,22.80
2019-03-23T07:55:38.530Z,21.73
2019-03-23T07:58:09.710Z,26.17
2019-03-23T08:00:40.893Z,22.57
2019-03-23T08:03:09.506Z,47.90
2019-03-23T08:05:39.235Z,22.60
2019-03-23T08:08:08.867Z,22.07
2019-03-23T08:10:37.915Z,22.13
2019-03-23T08:13:07.001Z,21.47
2019-03-23T08:15:35.981Z,25.93
2019-03-23T08:18:04.477Z,24.10
2019-03-23T08:20:32.879Z,27.50
2019-03-23T08:23:01.224Z,34.33
2019-03-23T08:25:29.616Z,31.10
2019-03-23T08:27:57.969Z,25.23
2019-03-23T08:30:27.432Z,30.67
2019-03-23T08:32:55.784Z,28.97
2019-03-23T08:35:24.241Z,30.70
2019-03-23T08:37:52.869Z,32.33
2019-03-23T08:40:21.318Z,33.63
2019-03-23T08:42:49.667Z,31.20
2019-03-23T08:45:18.051Z,28.97
2019-03-23T08:47:46.400Z,34.60
2019-03-23T08:50:15.019Z,34.40
2019-03-23T08:52:43.375Z,30.07
2019-03-23T08:55:11.827Z,29.37
2019-03-23T08:57:41.417Z,32.07
2019-03-23T09:00:10.113Z,30.83
2019-03-23T09:02:38.458Z,38.53
2019-03-23T09:05:07.007Z,34.37
2019-03-23T09:07:35.360Z,32.40
2019-03-23T09:10:06.748Z,32.03
2019-03-23T09:12:35.095Z,38.83
2019-03-23T09:15:04.785Z,30.17
2019-03-23T09:17:33.174Z,32.23
2019-03-23T09:20:01.523Z,30.77
2019-03-23T09:22:29.908Z,28.00
2019-03-23T09:24:58.258Z,31.20
2019-03-23T09:27:26.719Z,31.80
2019-03-23T09:29:55.064Z,28.47
2019-03-23T09:32:23.744Z,32.93
2019-03-23T09:34:52.234Z,33.33
2019-03-23T09:37:20.687Z,33.03
2019-03-23T09:39:49.107Z,32.30
2019-03-23T09:42:17.650Z,30.77
2019-03-23T09:44:46.002Z,28.40
2019-03-23T09:47:14.379Z,37.33
2019-03-23T09:49:42.729Z,31.27
2019-03-23T09:52:11.114Z,34.10
2019-03-23T09:54:39.601Z,33.70
2019-03-23T09:57:07.984Z,40.57
2019-03-23T09:59:36.553Z,40.17
2019-03-23T10:02:05.008Z,39.20
2019-03-23T10:04:33.355Z,41.93
2019-03-23T10:07:01.735Z,38.70
2019-03-23T10:09:30.157Z,40.47
2019-03-23T10:11:59.334Z,39.50
2019-03-23T10:14:27.656Z,35.73
2019-03-23T10:16:56.044Z,41.20
2019-03-23T10:19:24.561Z,43.27
2019-03-23T10:21:53.449Z,45.50
2019-03-23T10:24:21.875Z,48.63
2019-03-23T10:26:52.153Z,52.73
2019-03-23T10:29:20.336Z,48.80
2019-03-23T10:31:48.707Z,46.97
2019-03-23T10:34:17.338Z,53.67
2019-03-23T10:36:45.790Z,49.30
2019-03-23T10:39:14.301Z,45.03
2019-03-23T10:41:42.663Z,46.80
2019-03-23T10:44:11.116Z,42.27
2019-03-23T10:46:41.007Z,45.93
2019-03-23T10:49:09.465Z,40.10
2019-03-23T10:51:37.889Z,41.53
2019-03-23T10:54:06.350Z,40.83
2019-03-23T10:56:34.787Z,38.90
2019-03-23T10:59:03.473Z,40.67
2019-03-23T11:01:31.993Z,43.93
2019-03-23T11:04:00.594Z,40.23
2019-03-23T11:06:28.939Z,37.13
2019-03-23T11:08:57.965Z,44.13
2019-03-23T11:11:26.315Z,41.10
2019-03-23T11:13:54.708Z,42.33
2019-03-23T11:16:23.131Z,41.17
2019-03-23T11:18:51.518Z,40.00
2019-03-23T11:21:19.946Z,40.37
2019-03-23T11:23:48.326Z,37.60
2019-03-23T11:26:16.754Z,35.07
2019-03-23T11:28:45.147Z,36.40
2019-03-23T11:31:13.649Z,34.33
2019-03-23T11:33:42.103Z,38.73
2019-03-23T11:36:10.602Z,34.77
2019-03-23T11:38:38.995Z,34.03
2019-03-23T11:41:07.412Z,35.07
2019-03-23T11:43:35.797Z,36.37
2019-03-23T11:46:04.225Z,36.27
2019-03-23T11:48:32.613Z,37.13
2019-03-23T11:51:00.968Z,35.07
2019-03-23T11:53:29.373Z,38.10
2019-03-23T11:55:57.717Z,39.27
2019-03-23T11:58:26.067Z,30.80
2019-03-23T12:00:54.539Z,38.27
2019-03-23T12:03:23.086Z,36.20
2019-03-23T12:05:51.541Z,36.67
2019-03-23T12:08:19.898Z,42.47
2019-03-23T12:10:48.663Z,36.50
2019-03-23T12:13:17.319Z,37.20
2019-03-23T12:15:45.783Z,33.43
2019-03-23T12:18:15.621Z,32.13
2019-03-23T12:20:44.193Z,41.67
2019-03-23T12:23:12.608Z,39.93
2019-03-23T12:25:41.135Z,38.97
2019-03-23T12:28:09.562Z,40.10
2019-03-23T12:30:37.946Z,37.80
2019-03-23T12:33:06.508Z,36.30
2019-03-23T12:35:34.905Z,35.47
2019-03-23T12:38:03.327Z,39.43
2019-03-23T12:40:31.716Z,44.30
2019-03-23T12:43:00.205Z,40.80
2019-03-23T12:45:28.663Z,44.00
2019-03-23T12:47:57.088Z,39.97
2019-03-23T12:50:25.552Z,37.90
2019-03-23T12:52:53.909Z,43.83
2019-03-23T12:55:22.370Z,37.40
2019-03-23T12:57:50.723Z,39.13
2019-03-23T13:00:19.250Z,38.60
2019-03-23T13:02:47.753Z,39.73
2019-03-23T13:05:16.280Z,39.50
2019-03-23T13:07:44.683Z,39.03
2019-03-23T13:10:14.275Z,39.90
2019-03-23T13:12:42.734Z,36.30
2019-03-23T13:15:12.925Z,39.43
2019-03-23T13:17:41.320Z,41.27
2019-03-23T13:20:10.424Z,38.50
2019-03-23T13:22:38.765Z,42.27
2019-03-23T13:25:09.033Z,41.10
2019-03-23T13:27:37.604Z,42.20
2019-03-23T13:30:09.091Z,39.53
2019-03-23T13:32:37.482Z,40.70
2019-03-23T13:35:05.910Z,40.23
2019-03-23T13:37:34.298Z,37.13
2019-03-23T13:40:02.651Z,45.17
2019-03-23T13:42:31.033Z,40.00
2019-03-23T13:44:59.390Z,43.17
2019-03-23T13:47:27.848Z,32.10
2019-03-23T13:49:56.200Z,50.97
2019-03-23T13:52:24.670Z,35.87
2019-03-23T13:54:53.021Z,40.07
2019-03-23T13:57:21.409Z,41.10
2019-03-23T13:59:49.830Z,38.97
2019-03-23T14:02:18.217Z,38.43
2019-03-23T14:04:46.577Z,38.73
2019-03-23T14:07:15.140Z,34.50
2019-03-23T14:09:43.568Z,49.07
2019-03-23T14:12:11.931Z,35.97
2019-03-23T14:14:40.320Z,38.70
2019-03-23T14:17:08.667Z,39.87
2019-03-23T14:19:37.056Z,56.00
2019-03-23T14:22:05.409Z,36.43
2019-03-23T14:24:33.795Z,34.87
2019-03-23T14:27:02.150Z,35.73
2019-03-23T14:29:30.536Z,33.40
2019-03-23T14:31:58.902Z,38.50
2019-03-23T14:34:27.287Z,36.90
2019-03-23T14:36:55.643Z,35.97
2019-03-23T14:39:24.095Z,34.63
2019-03-23T14:41:52.452Z,36.27
2019-03-23T14:44:20.845Z,38.00
2019-03-23T14:46:49.197Z,37.47
2019-03-23T14:49:17.656Z,46.47
2019-03-23T14:51:46.007Z,39.60
2019-03-23T14:54:14.398Z,63.17
2019-03-23T14:56:42.759Z,36.43
2019-03-23T14:59:11.147Z,41.73
2019-03-23T15:01:39.572Z,51.00
2019-03-23T15:04:07.965Z,54.53
2019-03-23T15:06:36.319Z,36.90
2019-03-23T15:09:06.378Z,36.53
2019-03-23T15:11:34.736Z,36.40
2019-03-23T15:14:03.129Z,42.83
2019-03-23T15:16:31.481Z,39.87
2019-03-23T15:18:59.871Z,39.23
2019-03-23T15:21:28.227Z,38.07
2019-03-23T15:23:56.580Z,37.60
2019-03-23T15:26:24.969Z,37.40
2019-03-23T15:28:53.329Z,38.63
2019-03-23T15:31:21.704Z,38.20
2019-03-23T15:33:50.066Z,37.33
2019-03-23T15:36:18.515Z,35.57
2019-03-23T15:38:46.875Z,38.33
2019-03-23T15:41:15.271Z,40.23
2019-03-23T15:43:43.622Z,46.13
2019-03-23T15:46:12.010Z,41.93
2019-03-23T15:48:40.369Z,45.30
2019-03-23T15:51:08.764Z,136.87
2019-03-23T15:53:37.117Z,44.60
2019-03-23T15:56:05.647Z,40.57
2019-03-23T15:58:34.007Z,37.63
2019-03-23T16:01:02.460Z,40.80
2019-03-23T16:03:30.816Z,40.37
2019-03-23T16:05:59.201Z,36.63
2019-03-23T16:08:27.559Z,40.87
2019-03-23T16:10:55.950Z,38.03
2019-03-23T16:13:24.301Z,37.20
2019-03-23T16:15:52.758Z,35.27
2019-03-23T16:18:21.492Z,37.30
2019-03-23T16:20:49.882Z,35.33
2019-03-23T16:23:18.243Z,38.97
2019-03-23T16:25:46.675Z,34.53
2019-03-23T16:28:15.469Z,38.87
2019-03-23T16:30:43.824Z,40.63
2019-03-23T16:33:12.331Z,36.03
2019-03-23T16:35:40.683Z,36.43
2019-03-23T16:38:09.214Z,35.20
2019-03-23T16:40:37.926Z,34.63
2019-03-23T16:43:06.451Z,32.60
2019-03-23T16:45:34.830Z,38.57
2019-03-23T16:48:03.222Z,37.27
2019-03-23T16:50:31.599Z,35.13
2019-03-23T16:53:00.415Z,34.43
2019-03-23T16:55:28.770Z,34.67
2019-03-23T16:57:57.326Z,39.03
2019-03-23T17:00:36.123Z,36.17
2019-03-23T17:03:05.141Z,35.90
2019-03-23T17:05:33.569Z,36.10
2019-03-23T17:08:01.962Z,38.03
2019-03-23T17:10:30.320Z,32.67
2019-03-23T17:12:58.708Z,35.53
2019-03-23T17:15:27.064Z,35.10
2019-03-23T17:17:56.313Z,38.17
2019-03-23T17:20:26.424Z,50.87
2019-03-23T17:22:54.811Z,54.07
2019-03-23T17:25:23.163Z,54.13
2019-03-23T17:27:51.550Z,54.87
2019-03-23T17:30:23.097Z,56.73
2019-03-23T17:32:51.489Z,58.83
2019-03-23T17:35:20.988Z,67.93
2019-03-23T17:37:49.902Z,58.50
2019-03-23T17:40:18.587Z,58.57
2019-03-23T17:42:46.970Z,59.97
2019-03-23T17:45:15.566Z,58.43
2019-03-23T17:47:44.439Z,64.17
2019-03-23T17:50:13.108Z,63.13
2019-03-23T17:52:42.180Z,66.73
2019-03-23T17:55:10.995Z,74.67
2019-03-23T17:57:39.416Z,71.43
2019-03-23T18:00:09.723Z,73.37
2019-03-23T18:02:38.239Z,76.70
2019-03-23T18:05:08.513Z,75.20
2019-03-23T18:07:36.936Z,80.10
2019-03-23T18:10:09.149Z,75.80
2019-03-23T18:12:37.572Z,85.90
2019-03-23T18:15:09.671Z,83.87
2019-03-23T18:17:38.090Z,83.67
2019-03-23T18:20:07.416Z,84.03
2019-03-23T18:22:35.836Z,86.20
2019-03-23T18:25:05.326Z,81.30
2019-03-23T18:27:33.686Z,83.93
2019-03-23T18:30:02.347Z,80.63
2019-03-23T18:32:31.249Z,86.80
2019-03-23T18:34:59.808Z,89.60
2019-03-23T18:37:28.162Z,84.50
2019-03-23T18:39:56.548Z,86.83
2019-03-23T18:42:24.976Z,80.93
2019-03-23T18:44:53.443Z,88.50
2019-03-23T18:47:21.805Z,90.40
2019-03-23T18:49:50.191Z,89.30
2019-03-23T18:52:18.554Z,80.80
2019-03-23T18:54:46.954Z,313.50
2019-03-23T18:57:15.519Z,103.93
2019-03-23T18:59:47.563Z,93.13
2019-03-23T19:02:20.375Z,92.17
2019-03-23T19:04:50.649Z,407.63
2019-03-23T19:07:21.018Z,242.70
2019-03-23T19:09:50.610Z,104.07
2019-03-23T19:12:20.245Z,92.77
2019-03-23T19:14:48.663Z,97.23
2019-03-23T19:17:17.047Z,93.30
2019-03-23T19:19:45.400Z,89.23
2019-03-23T19:22:13.791Z,98.43
2019-03-23T19:24:42.147Z,92.63
2019-03-23T19:27:10.535Z,93.63
2019-03-23T19:29:38.896Z,91.33
2019-03-23T19:32:07.351Z,94.60
2019-03-23T19:34:35.717Z,100.50
2019-03-23T19:37:04.170Z,92.93
2019-03-23T19:39:32.531Z,91.20
2019-03-23T19:42:00.921Z,94.10
2019-03-23T19:44:29.291Z,92.63
2019-03-23T19:46:57.663Z,91.03
2019-03-23T19:49:26.010Z,98.17
2019-03-23T19:51:54.400Z,88.80
2019-03-23T19:54:22.820Z,96.13
2019-03-23T19:56:51.275Z,97.63
2019-03-23T19:59:19.628Z,89.57
2019-03-23T20:01:48.028Z,99.80
2019-03-23T20:04:16.381Z,97.47
2019-03-23T20:06:44.774Z,96.10
2019-03-23T20:09:13.125Z,96.60
2019-03-23T20:11:41.472Z,94.80
2019-03-23T20:14:09.859Z,92.67
2019-03-23T20:16:38.222Z,314.80
2019-03-23T20:19:06.671Z,181.20
2019-03-23T20:21:35.028Z,143.87
2019-03-23T20:24:03.480Z,95.20
2019-03-23T20:26:31.837Z,101.93
2019-03-23T20:29:00.220Z,96.20
2019-03-23T20:31:28.576Z,100.67
2019-03-23T20:33:56.959Z,95.20
2019-03-23T20:36:25.316Z,106.13
2019-03-23T20:38:57.551Z,96.63
2019-03-23T20:41:27.461Z,97.77
2019-03-23T20:43:56.093Z,97.73
2019-03-23T20:46:25.539Z,95.67
2019-03-23T20:48:53.997Z,97.03
2019-03-23T20:51:22.354Z,105.33
2019-03-23T20:53:50.950Z,99.90
2019-03-23T20:56:19.301Z,95.57
2019-03-23T20:58:47.688Z,91.43
2019-03-23T21:01:16.037Z,95.27
2019-03-23T21:03:46.062Z,91.07
2019-03-23T21:06:14.766Z,97.97
2019-03-23T21:08:44.923Z,96.03
2019-03-23T21:11:13.973Z,100.93
2019-03-23T21:13:42.381Z,100.33
2019-03-23T21:16:11.289Z,104.67
2019-03-23T21:18:39.815Z,110.23
2019-03-23T21:21:08.619Z,94.00
2019-03-23T21:23:37.973Z,101.30
2019-03-23T21:26:06.394Z,97.00
2019-03-23T21:28:34.812Z,94.57
2019-03-23T21:31:03.435Z,94.07
2019-03-23T21:33:38.473Z,98.93
2019-03-23T21:36:02.138Z,96.70
2019-03-23T21:38:30.737Z,97.03
2019-03-23T21:40:59.391Z,97.30
2019-03-23T21:43:27.976Z,96.93
2019-03-23T21:45:56.819Z,99.70
2019-03-23T21:48:25.350Z,98.70
2019-03-23T21:50:53.872Z,106.37
2019-03-23T21:53:22.262Z,94.50
2019-03-23T21:55:51.092Z,105.90
2019-03-23T21:58:19.789Z,106.27
2019-03-23T22:00:48.740Z,103.10
2019-03-23T22:03:17.479Z,102.07
2019-03-23T22:05:45.867Z,95.07
2019-03-23T22:08:15.524Z,96.50
2019-03-23T22:10:44.027Z,98.17
2019-03-23T22:13:12.620Z,96.67
2019-03-23T22:15:41.450Z,103.07
2019-03-23T22:18:10.177Z,99.77
2019-03-23T22:20:38.574Z,93.73
2019-03-23T22:23:07.170Z,89.67
2019-03-23T22:25:35.791Z,96.73
2019-03-23T22:28:06.431Z,93.20
2019-03-23T22:30:34.811Z,89.03
2019-03-23T22:33:03.165Z,99.47
2019-03-23T22:35:31.545Z,95.37
2019-03-23T22:37:59.966Z,98.07
2019-03-23T22:40:28.440Z,94.70
2019-03-23T22:42:56.853Z,106.83
2019-03-23T22:45:25.208Z,104.20
2019-03-23T22:47:53.594Z,88.30
2019-03-23T22:50:22.020Z,94.07
2019-03-23T22:52:50.411Z,106.13
2019-03-23T22:55:18.770Z,108.23
2019-03-23T22:57:47.160Z,103.17
2019-03-23T23:00:22.526Z,106.80
2019-03-23T23:02:50.919Z,102.50
2019-03-23T23:05:19.585Z,100.70
2019-03-23T23:07:48.118Z,92.10
2019-03-23T23:10:16.713Z,89.37
2019-03-23T23:12:48.504Z,92.40
2019-03-23T23:15:17.036Z,103.93
2019-03-23T23:17:45.642Z,99.80
2019-03-23T23:20:14.059Z,94.47
2019-03-23T23:22:42.685Z,113.27
2019-03-23T23:25:11.658Z,104.57
2019-03-23T23:27:42.879Z,90.70
2019-03-23T23:30:12.129Z,108.37
2019-03-23T23:32:41.248Z,107.80
2019-03-23T23:35:10.509Z,111.23
2019-03-23T23:37:39.607Z,116.23
2019-03-23T23:40:08.438Z,124.40
2019-03-23T23:42:37.253Z,102.03
2019-03-23T23:45:16.006Z,105.47
2019-03-23T23:47:47.591Z,96.30
2019-03-23T23:50:16.116Z,107.37
2019-03-23T23:52:44.746Z,96.10
2019-03-23T23:55:13.457Z,106.23
2019-03-23T23:57:42.261Z,100.53
